Time;durP1;ratioP1;P1;durP2;ratioP2;P2;SDS_P1;SDS_P2;PMS_P1;PMS_P2;Temp;Humidity;BMP_temperature;BMP_pressure;BME280_temperature;BME280_humidity;BME280_pressure;Samples;Min_cycle;Max_cycle;Signal;HPM_P1;HPM_P2
2022/12/10 00:00:14;;;;;;;77.20;27.60;;;;;;;0.56;85.13;98862.02;210463;1296;139604;-66
2022/12/10 00:05:38;;;;;;;67.70;29.90;;;;;;;0.54;85.11;98856.15;210453;1295;225553;-66
2022/12/10 00:10:42;;;;;;;79.30;34.30;;;;;;;0.50;85.09;98858.42;210377;1290;140338;-68
2022/12/10 00:15:46;;;;;;;82.30;33.30;;;;;;;0.47;85.28;98863.65;210540;1291;140398;-64
2022/12/10 00:20:51;;;;;;;74.80;31.00;;;;;;;0.45;85.40;98863.55;210384;1292;140182;-66
2022/12/10 00:26:05;;;;;;;79.70;32.30;;;;;;;0.49;85.21;98866.85;209893;1290;141352;-67
2022/12/10 00:31:13;;;;;;;82.60;34.70;;;;;;;0.51;85.89;98863.19;210490;1298;139822;-64
2022/12/10 00:36:24;;;;;;;74.30;30.50;;;;;;;0.50;85.41;98863.14;210638;1295;139712;-65
2022/12/10 00:41:29;;;;;;;69.00;27.80;;;;;;;0.54;85.45;98867.13;210485;1298;141152;-64
2022/12/10 00:46:33;;;;;;;66.50;28.30;;;;;;;0.50;85.64;98861.38;209891;1286;140201;-67
2022/12/10 00:51:39;;;;;;;70.00;27.10;;;;;;;0.44;85.21;98863.17;210559;1298;141092;-65
2022/12/10 00:56:43;;;;;;;65.40;28.20;;;;;;;0.43;85.46;98864.66;209350;1292;141372;-65
2022/12/10 01:01:48;;;;;;;58.80;23.60;;;;;;;0.44;85.70;98861.77;207312;1288;143196;-66
2022/12/10 01:06:54;;;;;;;71.40;29.30;;;;;;;0.43;85.64;98860.51;210640;1278;140175;-68
2022/12/10 01:12:02;;;;;;;70.10;28.50;;;;;;;0.42;85.75;98861.70;210423;1298;139602;-67
2022/12/10 01:17:07;;;;;;;72.60;27.80;;;;;;;0.46;85.49;98866.98;208733;1285;140726;-66
2022/12/10 01:22:12;;;;;;;69.40;32.50;;;;;;;0.47;85.93;98874.85;208900;1295;140207;-67
2022/12/10 01:27:17;;;;;;;77.00;28.90;;;;;;;0.44;85.79;98869.55;210578;1295;140520;-66
2022/12/10 01:32:21;;;;;;;70.50;31.50;;;;;;;0.45;85.88;98864.30;210522;1298;140004;-65
2022/12/10 01:37:25;;;;;;;75.90;35.00;;;;;;;0.45;85.83;98860.69;210678;1303;140461;-66
2022/12/10 01:42:28;;;;;;;65.00;29.40;;;;;;;0.43;86.17;98859.02;209917;1295;139591;-65
2022/12/10 01:47:34;;;;;;;68.50;26.50;;;;;;;0.41;85.80;98860.13;207983;1284;140351;-66
2022/12/10 01:52:39;;;;;;;67.90;30.10;;;;;;;0.45;85.96;98862.83;210264;1292;140477;-65
2022/12/10 01:57:44;;;;;;;70.80;27.40;;;;;;;0.45;86.01;98855.92;210475;1295;140202;-64
2022/12/10 02:03:04;;;;;;;66.00;25.60;;;;;;;0.41;85.75;98850.98;210495;1292;140606;-64
2022/12/10 02:08:19;;;;;;;64.50;24.90;;;;;;;0.37;86.11;98849.85;210780;1292;139334;-64
2022/12/10 02:14:07;;;;;;;58.70;29.00;;;;;;;0.44;86.03;98847.65;210719;1292;141289;-65
2022/12/10 02:19:34;;;;;;;62.10;30.70;;;;;;;0.43;85.89;98842.60;209574;1306;140898;-66
2022/12/10 02:24:41;;;;;;;63.00;25.80;;;;;;;0.40;85.85;98845.35;210614;1298;139508;-66
2022/12/10 02:29:49;;;;;;;67.40;29.40;;;;;;;0.43;86.05;98846.91;210584;1300;140362;-66
2022/12/10 02:34:57;;;;;;;62.20;27.00;;;;;;;0.46;86.06;98851.05;210421;1295;140077;-66
2022/12/10 02:40:11;;;;;;;67.20;27.50;;;;;;;0.45;85.81;98849.77;210651;1292;139375;-67
2022/12/10 02:45:18;;;;;;;67.90;27.20;;;;;;;0.41;86.03;98848.35;209639;1278;235082;-66
2022/12/10 02:50:24;;;;;;;61.60;27.10;;;;;;;0.44;85.97;98845.31;208670;1292;140435;-66
2022/12/10 02:55:42;;;;;;;59.50;28.30;;;;;;;0.46;86.02;98848.95;210579;1292;140460;-66
2022/12/10 03:01:02;;;;;;;71.00;29.00;;;;;;;0.39;86.01;98850.44;209727;1284;139826;-65
2022/12/10 03:06:34;;;;;;;61.20;26.70;;;;;;;0.40;86.22;98846.73;207768;1285;140200;-64
2022/12/10 03:11:43;;;;;;;74.00;30.80;;;;;;;0.41;86.32;98844.80;207551;1301;141184;-65
2022/12/10 03:16:56;;;;;;;66.20;29.30;;;;;;;0.39;86.47;98845.98;209958;1292;139730;-65
2022/12/10 03:22:02;;;;;;;58.90;25.30;;;;;;;0.38;86.44;98849.73;207597;1292;139925;-66
2022/12/10 03:27:07;;;;;;;65.80;30.90;;;;;;;0.43;86.12;98853.85;210720;1292;161305;-66
2022/12/10 03:32:14;;;;;;;56.90;28.90;;;;;;;0.42;86.16;98854.61;210890;1299;141173;-65
2022/12/10 03:37:20;;;;;;;64.70;29.10;;;;;;;0.41;86.44;98858.83;210761;1292;140641;-66
2022/12/10 03:42:26;;;;;;;61.40;29.60;;;;;;;0.45;86.35;98860.77;210634;1298;139605;-66
2022/12/10 03:47:31;;;;;;;64.40;29.60;;;;;;;0.51;86.59;98858.46;208888;1297;141503;-65
2022/12/10 03:52:38;;;;;;;68.70;31.50;;;;;;;0.47;86.32;98859.09;210515;1295;141513;-65
2022/12/10 03:57:43;;;;;;;69.10;27.70;;;;;;;0.46;86.41;98860.97;210692;1292;140194;-65
2022/12/10 04:02:48;;;;;;;67.80;32.20;;;;;;;0.48;86.51;98865.39;210617;1299;140311;-65
2022/12/10 04:07:54;;;;;;;74.60;33.60;;;;;;;0.45;86.34;98869.84;210529;1291;141020;-65
2022/12/10 04:18:22;;;;;;;68.00;30.50;;;;;;;0.55;86.54;98881.63;210336;1293;537434;-66
2022/12/10 04:28:49;;;;;;;73.30;28.30;;;;;;;0.49;86.64;98886.66;210731;1292;140036;-64
2022/12/10 04:33:53;;;;;;;66.50;29.50;;;;;;;0.50;86.29;98884.02;210517;1291;141040;-66
2022/12/10 04:38:58;;;;;;;59.10;23.10;;;;;;;0.46;85.98;98893.48;210380;1292;139547;-66
2022/12/10 04:44:04;;;;;;;78.40;29.70;;;;;;;0.40;86.14;98896.98;209024;1295;139550;-65
2022/12/10 04:49:09;;;;;;;84.10;30.30;;;;;;;0.43;86.20;98901.90;210514;1291;141652;-66
2022/12/10 04:54:14;;;;;;;63.20;31.00;;;;;;;0.42;86.50;98896.40;210526;1294;141492;-65
2022/12/10 04:59:18;;;;;;;65.10;27.20;;;;;;;0.43;86.58;98899.08;209836;1285;139418;-66
2022/12/10 05:04:22;;;;;;;66.40;31.70;;;;;;;0.47;86.17;98897.54;207697;1293;140213;-66
2022/12/10 05:09:27;;;;;;;76.60;31.20;;;;;;;0.43;86.30;98889.95;210886;1293;139412;-65
2022/12/10 05:14:31;;;;;;;67.50;26.20;;;;;;;0.38;86.41;98890.44;210776;1292;139671;-65
2022/12/10 05:19:36;;;;;;;69.10;31.30;;;;;;;0.41;86.46;98894.38;210692;1292;140518;-65
2022/12/10 05:24:39;;;;;;;66.00;30.20;;;;;;;0.41;86.56;98899.81;210378;1295;139994;-64
2022/12/10 05:29:42;;;;;;;71.80;28.80;;;;;;;0.38;86.27;98905.47;210530;1284;139612;-65
2022/12/10 05:34:47;;;;;;;69.70;32.90;;;;;;;0.37;86.27;98918.81;210709;1281;140100;-65
2022/12/10 05:39:52;;;;;;;77.20;33.90;;;;;;;0.43;86.27;98929.32;210337;1290;139815;-63
2022/12/10 05:44:57;;;;;;;66.20;31.90;;;;;;;0.41;86.21;98933.09;207477;1287;139451;-65
2022/12/10 05:50:03;;;;;;;64.60;29.00;;;;;;;0.38;86.44;98937.66;207150;1292;139985;-69
2022/12/10 05:55:08;;;;;;;67.90;29.80;;;;;;;0.36;86.24;98938.25;210469;1285;140961;-67
2022/12/10 06:00:12;;;;;;;62.30;28.30;;;;;;;0.36;86.40;98945.55;210485;1292;140101;-67
2022/12/10 06:05:17;;;;;;;77.00;33.00;;;;;;;0.35;86.64;98942.23;210475;1290;142204;-66
2022/12/10 06:10:21;;;;;;;66.30;32.60;;;;;;;0.33;86.11;98937.34;210532;1291;141423;-67
2022/12/10 06:15:26;;;;;;;67.80;30.50;;;;;;;0.31;86.29;98938.14;210716;1292;139827;-67
2022/12/10 06:20:30;;;;;;;68.20;32.50;;;;;;;0.31;86.33;98937.81;210759;1295;140402;-64
2022/12/10 06:25:38;;;;;;;59.80;26.00;;;;;;;0.31;85.99;98940.67;210668;1292;248209;-64
2022/12/10 06:30:46;;;;;;;60.40;26.20;;;;;;;0.28;86.45;98940.55;210602;1292;140475;-65
2022/12/10 06:35:50;;;;;;;64.90;26.90;;;;;;;0.26;86.46;98933.58;210798;1293;141076;-66
2022/12/10 06:40:55;;;;;;;64.90;25.70;;;;;;;0.25;86.66;98938.41;210617;1292;141311;-68
2022/12/10 06:46:05;;;;;;;58.00;29.20;;;;;;;0.28;86.13;98940.74;210659;1294;140048;-67
2022/12/10 06:51:11;;;;;;;53.90;27.70;;;;;;;0.28;86.06;98946.88;210911;1277;141402;-68
2022/12/10 06:56:18;;;;;;;57.00;25.50;;;;;;;0.25;85.94;98947.80;210434;1292;140723;-67
2022/12/10 07:01:27;;;;;;;52.80;26.70;;;;;;;0.27;86.00;98955.70;208161;1278;230233;-68
2022/12/10 07:06:32;;;;;;;49.30;23.90;;;;;;;0.29;86.00;98957.29;210076;1294;140155;-67
2022/12/10 07:11:36;;;;;;;55.70;24.70;;;;;;;0.25;86.14;98966.08;207397;1284;139874;-68
2022/12/10 07:16:40;;;;;;;51.30;25.00;;;;;;;0.25;85.89;98967.73;210009;1298;140102;-67
2022/12/10 07:21:45;;;;;;;43.60;21.40;;;;;;;0.24;85.69;98960.98;210474;1284;140584;-69
2022/12/10 07:26:51;;;;;;;53.30;24.20;;;;;;;0.20;85.94;98959.58;210213;1291;140249;-69
2022/12/10 07:31:55;;;;;;;51.70;22.50;;;;;;;0.17;86.06;98962.04;210596;1299;139669;-68
2022/12/10 07:36:59;;;;;;;49.80;28.20;;;;;;;0.22;85.62;98965.16;210430;1292;139824;-66
2022/12/10 07:42:03;;;;;;;52.70;24.60;;;;;;;0.21;85.73;98961.44;210643;1288;140063;-66
2022/12/10 07:47:07;;;;;;;46.00;26.00;;;;;;;0.20;85.44;98960.70;210480;1292;140088;-67
2022/12/10 07:52:11;;;;;;;48.20;24.00;;;;;;;0.22;85.74;98961.45;210481;1285;140422;-69
2022/12/10 07:57:15;;;;;;;55.60;27.10;;;;;;;0.19;85.67;98957.75;210733;1292;141567;-65
2022/12/10 08:02:18;;;;;;;45.90;23.40;;;;;;;0.19;85.49;98961.13;210692;1286;139821;-67
2022/12/10 08:07:21;;;;;;;54.70;24.90;;;;;;;0.22;85.62;98971.02;210738;1299;141604;-67
2022/12/10 08:12:25;;;;;;;52.30;26.40;;;;;;;0.25;85.72;98981.12;210644;1292;140327;-66
2022/12/10 08:17:30;;;;;;;50.80;23.60;;;;;;;0.26;85.52;98977.55;210688;1292;140526;-66
2022/12/10 08:22:36;;;;;;;55.90;26.70;;;;;;;0.29;85.61;98976.64;210429;1292;140752;-64
2022/12/10 08:27:40;;;;;;;48.20;24.30;;;;;;;0.35;85.46;98978.16;210632;1292;139532;-66
2022/12/10 08:32:45;;;;;;;51.20;24.40;;;;;;;0.38;85.54;98981.05;210569;1292;138825;-68
2022/12/10 08:37:49;;;;;;;54.30;23.20;;;;;;;0.39;85.62;98976.71;210486;1285;140175;-68
2022/12/10 08:42:53;;;;;;;38.90;22.50;;;;;;;0.42;84.95;98971.91;210504;1292;140568;-68
2022/12/10 08:48:01;;;;;;;52.90;23.50;;;;;;;0.39;85.53;98969.66;209836;1292;139539;-68
2022/12/10 08:53:11;;;;;;;46.00;23.20;;;;;;;0.40;85.34;98969.95;208058;1286;223512;-68
2022/12/10 08:58:15;;;;;;;43.80;24.60;;;;;;;0.48;85.24;98966.64;210466;1292;139979;-68
2022/12/10 09:03:20;;;;;;;40.60;21.00;;;;;;;0.50;85.53;98967.59;208646;1292;140178;-69
2022/12/10 09:08:26;;;;;;;48.40;24.20;;;;;;;0.50;85.56;98968.72;208474;1298;139979;-67
2022/12/10 09:13:30;;;;;;;50.80;25.70;;;;;;;0.55;85.14;98976.42;210613;1292;140151;-68
2022/12/10 09:18:36;;;;;;;49.00;25.80;;;;;;;0.59;85.40;98983.29;210592;1300;150908;-68
2022/12/10 09:23:43;;;;;;;46.00;22.30;;;;;;;0.60;85.49;98989.59;208863;1284;140105;-67
2022/12/10 09:28:48;;;;;;;49.10;23.70;;;;;;;0.59;85.25;98995.75;210521;1288;140856;-68
2022/12/10 09:33:54;;;;;;;49.10;23.50;;;;;;;0.64;85.37;98997.15;208245;1294;139963;-68
2022/12/10 09:38:58;;;;;;;45.60;25.80;;;;;;;0.72;85.48;98998.70;210223;1292;140259;-68
2022/12/10 09:44:06;;;;;;;45.30;23.90;;;;;;;0.71;85.34;98998.74;210786;1284;139494;-67
2022/12/10 09:49:27;;;;;;;47.50;23.30;;;;;;;0.72;85.36;98992.20;210362;1292;141935;-68
2022/12/10 09:54:33;;;;;;;49.40;24.50;;;;;;;0.76;85.07;98990.11;210751;1286;140446;-67
2022/12/10 09:59:46;;;;;;;49.50;25.50;;;;;;;0.72;85.07;98977.45;210680;1292;139963;-66
2022/12/10 10:05:08;;;;;;;43.90;20.20;;;;;;;0.73;84.90;98967.77;210548;1292;140030;-64
2022/12/10 10:10:28;;;;;;;44.90;22.30;;;;;;;0.77;84.77;98962.71;210724;1292;141111;-64
2022/12/10 10:15:35;;;;;;;52.20;24.50;;;;;;;0.76;84.95;98953.06;210747;1292;140267;-64
2022/12/10 10:20:39;;;;;;;44.10;23.80;;;;;;;0.72;85.39;98947.58;210562;1300;139201;-65
2022/12/10 10:25:45;;;;;;;41.50;20.00;;;;;;;0.71;84.86;98940.55;210656;1292;140300;-67
2022/12/10 10:30:51;;;;;;;36.60;20.10;;;;;;;0.73;84.89;98938.51;210632;1292;140856;-66
2022/12/10 10:35:59;;;;;;;51.30;24.10;;;;;;;0.71;84.80;98937.00;210335;1292;140969;-65
2022/12/10 10:41:04;;;;;;;51.80;22.40;;;;;;;0.73;84.96;98939.80;210348;1290;140117;-67
2022/12/10 10:46:16;;;;;;;46.20;22.20;;;;;;;0.80;85.08;98935.61;210214;1287;141624;-66
2022/12/10 10:51:25;;;;;;;45.90;22.40;;;;;;;0.78;84.73;98937.94;210506;1285;246430;-67
2022/12/10 10:56:39;;;;;;;49.30;22.20;;;;;;;0.74;84.73;98935.98;210546;1295;139799;-67
2022/12/10 11:01:48;;;;;;;39.00;19.10;;;;;;;0.74;84.65;98932.95;210563;1295;140452;-64
2022/12/10 11:06:56;;;;;;;33.30;16.50;;;;;;;0.70;84.64;98933.84;210501;1285;141457;-63
2022/12/10 11:12:04;;;;;;;40.60;20.90;;;;;;;0.67;84.52;98934.17;208141;1294;141531;-63
2022/12/10 11:17:10;;;;;;;33.80;17.00;;;;;;;0.73;84.77;98927.65;210358;1300;244372;-68
2022/12/10 11:22:21;;;;;;;38.10;20.10;;;;;;;0.72;84.57;98924.30;210344;1292;139977;-66
2022/12/10 11:27:43;;;;;;;43.60;21.80;;;;;;;0.72;84.94;98921.11;210577;1300;140217;-67
2022/12/10 11:33:15;;;;;;;39.20;19.80;;;;;;;0.77;84.87;98914.29;210564;1292;140751;-64
2022/12/10 11:38:49;;;;;;;46.50;21.90;;;;;;;0.70;84.26;98919.48;210535;1295;224808;-67
2022/12/10 11:44:22;;;;;;;47.60;21.20;;;;;;;0.67;84.43;98920.99;207855;1294;140145;-69
2022/12/10 11:49:54;;;;;;;41.00;19.80;;;;;;;0.63;84.48;98930.20;207338;1292;140726;-66
2022/12/10 11:55:07;;;;;;;45.00;20.40;;;;;;;0.57;84.98;98932.96;210607;1292;140500;-66
2022/12/10 12:00:19;;;;;;;38.10;18.00;;;;;;;0.60;84.67;98944.52;210523;1295;140839;-66
2022/12/10 12:06:09;;;;;;;43.40;23.30;;;;;;;0.66;84.47;98951.31;210323;1295;139849;-67
2022/12/10 12:11:27;;;;;;;46.60;21.50;;;;;;;0.71;85.13;98963.15;210168;1285;139365;-67
2022/12/10 12:16:31;;;;;;;40.50;18.90;;;;;;;0.71;84.69;98968.39;210275;1296;140777;-68
2022/12/10 12:21:38;;;;;;;44.50;20.60;;;;;;;0.69;84.22;98963.34;210410;1287;140901;-68
2022/12/10 12:26:49;;;;;;;38.00;18.90;;;;;;;0.63;84.22;98964.70;210322;1295;139582;-67
2022/12/10 12:32:01;;;;;;;46.10;18.40;;;;;;;0.59;84.42;98964.92;210463;1294;139475;-66
2022/12/10 12:37:12;;;;;;;36.50;18.20;;;;;;;0.58;84.24;98962.74;210375;1291;140317;-66
2022/12/10 12:42:36;;;;;;;43.80;20.90;;;;;;;0.62;84.30;98956.95;210309;1293;139920;-69
2022/12/10 12:47:59;;;;;;;37.90;17.10;;;;;;;0.66;84.89;98965.77;210508;1294;139743;-68
2022/12/10 12:53:11;;;;;;;37.10;18.20;;;;;;;0.61;84.03;98966.80;210388;1293;140273;-68
2022/12/10 12:58:25;;;;;;;38.80;19.30;;;;;;;0.63;84.18;98963.93;209386;1295;163037;-67
2022/12/10 13:03:40;;;;;;;32.10;15.60;;;;;;;0.65;84.53;98972.30;210510;1293;139739;-67
2022/12/10 13:08:49;;;;;;;41.60;19.60;;;;;;;0.62;84.41;98979.17;210468;1292;140442;-65
2022/12/10 13:14:08;;;;;;;;;;;;;;;0.65;84.42;98974.11;209179;1300;140870;-66
2022/12/10 13:19:21;;;;;;;40.70;22.20;;;;;;;0.60;84.44;98975.69;208545;1289;126596;-68
2022/12/10 13:24:35;;;;;;;43.20;20.00;;;;;;;0.57;84.74;98980.08;210690;1292;141051;-64
2022/12/10 13:30:00;;;;;;;42.90;22.10;;;;;;;0.63;84.71;98969.46;207464;1292;142965;-67
2022/12/10 13:35:09;;;;;;;43.70;21.90;;;;;;;0.63;84.53;98966.32;207239;1300;141482;-65
2022/12/10 13:40:22;;;;;;;40.20;21.90;;;;;;;0.54;84.55;98974.32;209456;1285;139094;-65
2022/12/10 13:45:33;;;;;;;46.30;20.40;;;;;;;0.49;84.44;98982.26;208307;1285;140509;-62
2022/12/10 13:51:03;;;;;;;42.00;21.90;;;;;;;0.52;84.92;98978.54;210435;1291;140860;-65
2022/12/10 13:56:27;;;;;;;45.70;23.50;;;;;;;0.50;84.79;98965.01;210534;1295;140002;-65
2022/12/10 14:01:54;;;;;;;52.90;22.50;;;;;;;0.50;84.86;98958.68;210603;1284;139194;-67
2022/12/10 14:07:00;;;;;;;52.50;24.00;;;;;;;0.55;84.70;98954.08;208477;1291;140609;-69
2022/12/10 14:12:10;;;;;;;48.00;21.20;;;;;;;0.56;84.60;98954.48;210005;1295;162725;-67
2022/12/10 14:17:21;;;;;;;52.10;22.20;;;;;;;0.56;84.94;98950.49;210362;1301;139508;-70
2022/12/10 14:22:34;;;;;;;46.00;20.90;;;;;;;0.55;84.35;98953.52;210200;1295;139944;-70
2022/12/10 14:27:39;;;;;;;42.30;21.10;;;;;;;0.54;84.57;98957.53;210451;1299;141494;-68
2022/12/10 14:32:46;;;;;;;46.60;19.00;;;;;;;0.52;84.51;98953.17;210409;1295;140943;-68
2022/12/10 14:37:53;;;;;;;50.10;22.80;;;;;;;0.54;84.64;98951.94;210327;1301;141674;-65
2022/12/10 14:43:12;;;;;;;42.50;19.30;;;;;;;0.56;84.62;98961.11;210265;1295;141371;-67
2022/12/10 14:48:17;;;;;;;47.50;22.30;;;;;;;0.54;84.62;98976.05;210134;1285;140675;-67
2022/12/10 14:53:26;;;;;;;39.40;22.00;;;;;;;0.53;84.90;98980.92;210236;1295;140738;-70
2022/12/10 14:58:52;;;;;;;45.50;22.20;;;;;;;0.57;84.48;98982.46;210183;1302;139454;-66
2022/12/10 15:04:00;;;;;;;56.50;25.90;;;;;;;0.60;84.74;98991.40;210471;1295;141054;-67
2022/12/10 15:09:30;;;;;;;47.50;20.40;;;;;;;0.59;84.55;98978.40;210685;1293;141237;-70
2022/12/10 15:14:36;;;;;;;49.70;19.50;;;;;;;0.53;84.45;98975.48;210408;1292;140069;-69
2022/12/10 15:19:42;;;;;;;44.10;20.60;;;;;;;0.53;84.51;98991.25;210581;1292;140080;-70
2022/12/10 15:24:46;;;;;;;47.60;22.80;;;;;;;0.54;84.91;99006.19;210489;1298;139432;-67
2022/12/10 15:29:51;;;;;;;36.00;16.50;;;;;;;0.56;85.25;99007.79;210525;1288;140254;-65
2022/12/10 15:35:00;;;;;;;60.00;21.50;;;;;;;0.55;84.66;99009.52;210372;1293;140215;-69
2022/12/10 15:40:08;;;;;;;61.40;22.70;;;;;;;0.59;84.79;99014.80;210123;1295;141086;-69
2022/12/10 15:45:26;;;;;;;53.70;23.30;;;;;;;0.57;84.67;99013.08;210537;1278;140315;-70
2022/12/10 15:50:31;;;;;;;51.00;20.80;;;;;;;0.54;84.81;99015.91;210225;1295;139192;-70
2022/12/10 15:55:35;;;;;;;56.00;26.30;;;;;;;0.55;84.36;99020.36;210407;1285;139647;-67
2022/12/10 16:00:43;;;;;;;43.30;21.80;;;;;;;0.59;84.69;99017.61;209682;1284;140593;-66
2022/12/10 16:05:48;;;;;;;59.00;23.30;;;;;;;0.60;84.89;99019.45;209730;1295;139866;-69
2022/12/10 16:10:57;;;;;;;58.30;22.50;;;;;;;0.61;84.77;99001.70;210390;1298;141217;-68
2022/12/10 16:16:10;;;;;;;53.40;22.00;;;;;;;0.63;84.72;98985.68;210425;1293;140765;-67
2022/12/10 16:21:14;;;;;;;50.30;22.40;;;;;;;0.61;84.60;98988.77;210243;1291;470358;-67
2022/12/10 16:26:21;;;;;;;43.00;21.20;;;;;;;0.56;84.62;99003.60;210459;1295;139954;-67
2022/12/10 16:31:26;;;;;;;51.80;22.30;;;;;;;0.54;84.58;99005.02;210305;1295;220752;-68
2022/12/10 16:36:30;;;;;;;56.40;22.80;;;;;;;0.56;84.46;99005.45;210099;1295;141013;-71
2022/12/10 16:41:35;;;;;;;54.90;23.20;;;;;;;0.54;84.77;99016.56;210321;1289;139662;-72
2022/12/10 16:46:40;;;;;;;47.60;23.90;;;;;;;0.53;84.84;99023.53;210473;1295;141477;-72
2022/12/10 16:51:45;;;;;;;58.00;22.70;;;;;;;0.55;84.92;99031.70;210547;1292;150763;-73
2022/12/10 16:56:49;;;;;;;63.40;24.30;;;;;;;0.60;84.89;99034.38;210409;1295;140774;-64
2022/12/10 17:01:54;;;;;;;51.80;23.00;;;;;;;0.63;84.45;99028.23;210553;1295;139603;-68
2022/12/10 17:06:59;;;;;;;56.00;27.30;;;;;;;0.60;84.65;99029.16;210500;1291;139764;-69
2022/12/10 17:12:06;;;;;;;58.50;25.00;;;;;;;0.55;84.64;99032.59;210428;1292;140578;-69
2022/12/10 17:17:12;;;;;;;54.50;24.80;;;;;;;0.57;84.66;99033.38;210377;1292;142178;-66
2022/12/10 17:22:17;;;;;;;56.30;24.80;;;;;;;0.56;84.64;99030.22;210384;1295;139669;-69
2022/12/10 17:27:22;;;;;;;53.90;25.60;;;;;;;0.53;84.71;99030.19;209668;1282;140781;-65
2022/12/10 17:32:26;;;;;;;50.50;22.40;;;;;;;0.53;84.80;99032.13;210386;1291;139672;-67
2022/12/10 17:37:32;;;;;;;54.40;24.20;;;;;;;0.54;84.71;99026.77;207296;1284;140526;-64
2022/12/10 17:42:36;;;;;;;60.30;25.20;;;;;;;0.57;84.74;99015.59;207116;1286;141957;-67
2022/12/10 17:47:41;;;;;;;70.30;32.50;;;;;;;0.50;84.71;99013.94;207370;1285;141496;-68
2022/12/10 17:52:46;;;;;;;62.10;28.10;;;;;;;0.45;84.89;99010.22;208420;1298;141177;-67
2022/12/10 17:57:50;;;;;;;54.90;27.90;;;;;;;0.44;84.91;99008.88;209598;1295;140500;-66
2022/12/10 18:02:54;;;;;;;49.00;24.40;;;;;;;0.43;85.07;99012.77;210563;1292;141742;-68
2022/12/10 18:07:58;;;;;;;38.10;18.40;;;;;;;0.39;85.13;99015.48;210379;1291;140847;-67
2022/12/10 18:13:02;;;;;;;36.10;17.70;;;;;;;0.40;84.63;99011.93;207285;1285;140766;-69
2022/12/10 18:18:06;;;;;;;34.00;17.60;;;;;;;0.34;84.82;99016.02;210651;1290;139880;-67
2022/12/10 18:23:13;;;;;;;40.20;19.10;;;;;;;0.29;84.49;99017.30;210464;1292;140376;-69
2022/12/10 18:28:21;;;;;;;42.40;18.20;;;;;;;0.32;84.48;99021.70;210161;1292;140648;-64
2022/12/10 18:33:24;;;;;;;38.50;18.30;;;;;;;0.36;84.56;99026.14;210562;1298;140192;-68
2022/12/10 18:38:28;;;;;;;41.40;19.10;;;;;;;0.34;84.76;99026.55;210465;1299;140553;-68
2022/12/10 18:43:34;;;;;;;35.60;18.20;;;;;;;0.35;84.61;99022.09;210294;1301;140152;-67
2022/12/10 18:48:39;;;;;;;45.90;22.10;;;;;;;0.40;84.49;99037.23;210438;1292;142036;-68
2022/12/10 18:53:44;;;;;;;34.90;15.80;;;;;;;0.38;84.41;99041.25;210473;1292;140814;-69
2022/12/10 18:58:50;;;;;;;40.70;18.80;;;;;;;0.31;84.26;99033.92;210415;1298;140814;-70
2022/12/10 19:03:55;;;;;;;42.60;19.40;;;;;;;0.31;84.27;99030.32;210506;1292;140836;-69
2022/12/10 19:09:00;;;;;;;41.30;20.60;;;;;;;0.30;84.53;99024.72;210486;1291;141416;-69
2022/12/10 19:14:22;;;;;;;43.60;18.70;;;;;;;0.26;84.43;99023.84;210334;1290;140367;-68
2022/12/10 19:19:27;;;;;;;43.80;19.60;;;;;;;0.26;84.08;99021.29;210533;1294;141853;-69
2022/12/10 19:24:32;;;;;;;43.10;22.30;;;;;;;0.22;84.30;99025.08;209430;1291;140820;-68
2022/12/10 19:29:40;;;;;;;34.80;17.60;;;;;;;0.21;84.75;99019.62;209262;1287;141415;-67
2022/12/10 19:34:44;;;;;;;37.20;18.40;;;;;;;0.23;84.38;99025.25;209066;1286;236397;-68
2022/12/10 19:39:49;;;;;;;36.60;19.50;;;;;;;0.23;84.26;99031.18;210413;1298;140529;-65
2022/12/10 19:44:54;;;;;;;37.60;19.60;;;;;;;0.16;84.25;99025.13;210438;1298;139847;-68
2022/12/10 19:49:59;;;;;;;38.90;19.20;;;;;;;0.19;84.08;99030.85;210365;1298;139849;-68
2022/12/10 19:55:03;;;;;;;33.70;18.20;;;;;;;0.11;84.45;99032.69;210522;1298;140731;-67
2022/12/10 20:00:16;;;;;;;36.60;19.00;;;;;;;0.05;84.06;99025.06;210484;1298;139283;-68
2022/12/10 20:05:20;;;;;;;37.80;17.50;;;;;;;0.03;84.25;99028.27;210278;1295;140687;-65
2022/12/10 20:10:28;;;;;;;34.90;13.90;;;;;;;0.03;84.57;99032.14;210371;1296;141601;-68
2022/12/10 20:15:32;;;;;;;35.10;16.60;;;;;;;0.01;84.16;99023.26;210525;1295;140325;-67
2022/12/10 20:20:36;;;;;;;36.90;19.90;;;;;;;0.06;84.27;99021.75;210395;1298;141838;-67
2022/12/10 20:25:44;;;;;;;35.70;16.60;;;;;;;0.02;84.46;99018.77;209692;1285;140202;-65
2022/12/10 20:30:49;;;;;;;39.70;19.20;;;;;;;-0.04;84.15;99025.27;210395;1288;141040;-67
2022/12/10 20:35:56;;;;;;;42.80;19.70;;;;;;;-0.04;84.15;99031.13;210313;1298;141756;-67
2022/12/10 20:41:00;;;;;;;41.40;19.60;;;;;;;-0.07;84.69;99035.73;210285;1295;139962;-65
2022/12/10 20:46:28;;;;;;;38.30;19.80;;;;;;;-0.09;84.63;99038.30;210161;1295;141462;-66
2022/12/10 20:51:32;;;;;;;44.40;21.00;;;;;;;-0.04;84.70;99032.77;210562;1294;140225;-65
2022/12/10 20:56:36;;;;;;;44.30;20.50;;;;;;;-0.06;84.96;99030.77;210443;1288;141358;-68
2022/12/10 21:01:41;;;;;;;41.50;20.00;;;;;;;-0.08;84.76;99020.50;210357;1299;140687;-64
2022/12/10 21:06:46;;;;;;;38.50;19.30;;;;;;;-0.08;84.19;99014.34;209870;1277;141999;-63
2022/12/10 21:11:51;;;;;;;36.70;20.10;;;;;;;-0.16;84.41;99007.11;210485;1284;141489;-66
2022/12/10 21:16:57;;;;;;;45.60;22.70;;;;;;;-0.23;84.48;99005.85;210442;1295;140868;-64
2022/12/10 21:22:01;;;;;;;41.10;18.70;;;;;;;-0.24;84.49;99002.65;210226;1298;140888;-64
2022/12/10 21:27:05;;;;;;;36.90;16.80;;;;;;;-0.29;84.81;98990.06;210648;1295;140515;-65
2022/12/10 21:32:08;;;;;;;43.90;21.30;;;;;;;-0.32;84.54;98992.13;210460;1292;140846;-65
2022/12/10 21:37:12;;;;;;;38.10;18.00;;;;;;;-0.27;84.76;98992.42;210481;1295;141171;-63
2022/12/10 21:47:42;;;;;;;37.10;19.20;;;;;;;-0.23;84.85;99001.13;209427;1285;141238;-63
2022/12/10 21:52:47;;;;;;;41.70;19.50;;;;;;;-0.22;84.62;99000.70;210412;1292;150889;-63
2022/12/10 21:57:50;;;;;;;41.70;20.50;;;;;;;-0.26;84.37;99006.29;210160;1288;141984;-63
2022/12/10 22:02:55;;;;;;;43.40;22.70;;;;;;;-0.19;84.57;99010.82;210361;1298;140727;-64
2022/12/10 22:08:00;;;;;;;41.60;20.00;;;;;;;-0.14;84.83;99012.89;210389;1293;139709;-64
2022/12/10 22:13:04;;;;;;;39.20;19.40;;;;;;;-0.17;84.36;99011.84;210572;1285;139805;-64
2022/12/10 22:18:09;;;;;;;40.30;18.40;;;;;;;-0.19;84.22;99021.46;210408;1295;140898;-63
2022/12/10 22:23:15;;;;;;;37.20;17.70;;;;;;;-0.21;84.09;99017.23;208621;1292;140478;-64
2022/12/10 22:28:20;;;;;;;35.70;18.10;;;;;;;-0.25;84.52;99015.54;210339;1298;140955;-67
2022/12/10 22:33:24;;;;;;;34.40;17.30;;;;;;;-0.25;84.56;99016.46;210344;1288;141058;-65
2022/12/10 22:38:28;;;;;;;40.90;22.70;;;;;;;-0.23;84.36;99016.04;210423;1290;141718;-68
2022/12/10 22:43:33;;;;;;;33.10;18.50;;;;;;;-0.21;84.41;99009.53;210480;1295;139997;-68
2022/12/10 22:48:55;;;;;;;40.40;18.20;;;;;;;-0.22;84.24;98992.52;210489;1293;151579;-66
2022/12/10 22:54:00;;;;;;;34.00;19.30;;;;;;;-0.24;83.77;98991.34;210447;1295;142012;-69
2022/12/10 22:59:04;;;;;;;36.50;18.10;;;;;;;-0.24;83.68;98981.94;210223;1296;141703;-69
2022/12/10 23:04:09;;;;;;;37.60;17.70;;;;;;;-0.27;84.01;98975.62;210496;1295;140817;-65
2022/12/10 23:09:14;;;;;;;34.40;13.60;;;;;;;-0.33;83.65;98964.46;210546;1292;140464;-65
2022/12/10 23:14:19;;;;;;;33.00;15.00;;;;;;;-0.40;83.59;98958.09;210442;1292;140816;-67
2022/12/10 23:19:26;;;;;;;25.40;14.60;;;;;;;-0.47;83.54;98961.61;210347;1293;139507;-63
2022/12/10 23:24:30;;;;;;;33.20;14.90;;;;;;;-0.48;83.80;98956.89;210431;1295;142279;-64
2022/12/10 23:29:34;;;;;;;25.20;13.40;;;;;;;-0.40;83.85;98955.71;209271;1292;140862;-67
2022/12/10 23:34:39;;;;;;;34.70;18.40;;;;;;;-0.42;83.86;98946.37;210383;1292;145019;-65